sensor_id;sensor_type;location;lat;lon;timestamp;temperature;humidity
51733;DHT22;39139;53.144;6.244;2022-07-29T00:00:15;14.60;99.90
51733;DHT22;39139;53.144;6.244;2022-07-29T00:02:40;14.60;99.90
51733;DHT22;39139;53.144;6.244;2022-07-29T00:05:08;14.50;99.90
51733;DHT22;39139;53.144;6.244;2022-07-29T00:07:34;14.50;99.90
51733;DHT22;39139;53.144;6.244;2022-07-29T00:09:59;14.50;99.90
51733;DHT22;39139;53.144;6.244;2022-07-29T00:12:25;14.50;99.90
51733;DHT22;39139;53.144;6.244;2022-07-29T00:14:51;14.50;99.90
51733;DHT22;39139;53.144;6.244;2022-07-29T00:17:17;14.50;99.90
51733;DHT22;39139;53.144;6.244;2022-07-29T00:19:42;14.50;99.90
51733;DHT22;39139;53.144;6.244;2022-07-29T00:22:08;14.50;99.90
51733;DHT22;39139;53.144;6.244;2022-07-29T00:24:34;14.50;99.90
51733;DHT22;39139;53.144;6.244;2022-07-29T00:26:59;14.50;99.90
51733;DHT22;39139;53.144;6.244;2022-07-29T00:29:25;14.40;99.90
51733;DHT22;39139;53.144;6.244;2022-07-29T00:31:50;14.50;99.90
51733;DHT22;39139;53.144;6.244;2022-07-29T00:34:17;14.40;99.90
51733;DHT22;39139;53.144;6.244;2022-07-29T00:37:01;14.50;99.90
51733;DHT22;39139;53.144;6.244;2022-07-29T00:39:27;14.40;99.90
51733;DHT22;39139;53.144;6.244;2022-07-29T00:41:52;14.30;99.90
51733;DHT22;39139;53.144;6.244;2022-07-29T00:44:19;14.60;99.90
51733;DHT22;39139;53.144;6.244;2022-07-29T00:46:44;14.40;99.90
51733;DHT22;39139;53.144;6.244;2022-07-29T00:49:10;14.40;99.90
51733;DHT22;39139;53.144;6.244;2022-07-29T00:51:36;14.50;99.90
51733;DHT22;39139;53.144;6.244;2022-07-29T00:54:04;14.50;99.90
51733;DHT22;39139;53.144;6.244;2022-07-29T00:56:31;14.40;99.90
51733;DHT22;39139;53.144;6.244;2022-07-29T00:58:57;14.40;99.90
51733;DHT22;39139;53.144;6.244;2022-07-29T01:01:23;14.40;99.90
51733;DHT22;39139;53.144;6.244;2022-07-29T01:03:49;14.40;99.90
51733;DHT22;39139;53.144;6.244;2022-07-29T01:06:19;14.40;99.90
51733;DHT22;39139;53.144;6.244;2022-07-29T01:08:48;14.20;99.90
51733;DHT22;39139;53.144;6.244;2022-07-29T01:11:14;14.40;99.90
51733;DHT22;39139;53.144;6.244;2022-07-29T01:13:42;14.40;99.90
51733;DHT22;39139;53.144;6.244;2022-07-29T01:16:24;14.40;99.90
51733;DHT22;39139;53.144;6.244;2022-07-29T01:18:56;14.40;99.90
51733;DHT22;39139;53.144;6.244;2022-07-29T01:21:51;14.40;99.90
51733;DHT22;39139;53.144;6.244;2022-07-29T01:29:44;14.30;99.90
51733;DHT22;39139;53.144;6.244;2022-07-29T01:32:13;14.30;99.90
51733;DHT22;39139;53.144;6.244;2022-07-29T01:34:50;14.20;99.90
51733;DHT22;39139;53.144;6.244;2022-07-29T01:37:32;14.20;99.90
51733;DHT22;39139;53.144;6.244;2022-07-29T01:39:59;14.20;99.90
51733;DHT22;39139;53.144;6.244;2022-07-29T01:42:35;14.20;99.90
51733;DHT22;39139;53.144;6.244;2022-07-29T01:45:08;14.20;99.90
51733;DHT22;39139;53.144;6.244;2022-07-29T01:47:43;14.10;99.90
51733;DHT22;39139;53.144;6.244;2022-07-29T01:50:12;14.10;99.90
51733;DHT22;39139;53.144;6.244;2022-07-29T01:52:45;14.10;99.90
51733;DHT22;39139;53.144;6.244;2022-07-29T01:55:14;14.00;99.90
51733;DHT22;39139;53.144;6.244;2022-07-29T01:57:43;14.00;99.90
51733;DHT22;39139;53.144;6.244;2022-07-29T02:00:10;14.00;99.90
51733;DHT22;39139;53.144;6.244;2022-07-29T02:02:38;14.10;99.90
51733;DHT22;39139;53.144;6.244;2022-07-29T02:05:06;14.10;99.90
51733;DHT22;39139;53.144;6.244;2022-07-29T02:07:34;14.10;99.90
51733;DHT22;39139;53.144;6.244;2022-07-29T02:10:02;14.10;99.90
51733;DHT22;39139;53.144;6.244;2022-07-29T02:12:29;14.10;99.90
51733;DHT22;39139;53.144;6.244;2022-07-29T02:15:00;14.10;99.90
51733;DHT22;39139;53.144;6.244;2022-07-29T02:17:29;14.20;99.90
51733;DHT22;39139;53.144;6.244;2022-07-29T02:19:59;14.20;99.90
51733;DHT22;39139;53.144;6.244;2022-07-29T02:22:28;14.20;99.90
51733;DHT22;39139;53.144;6.244;2022-07-29T02:24:55;14.20;99.90
51733;DHT22;39139;53.144;6.244;2022-07-29T02:27:22;14.30;99.90
51733;DHT22;39139;53.144;6.244;2022-07-29T02:29:51;14.20;99.90
51733;DHT22;39139;53.144;6.244;2022-07-29T02:32:17;14.20;99.90
51733;DHT22;39139;53.144;6.244;2022-07-29T02:34:45;14.30;99.90
51733;DHT22;39139;53.144;6.244;2022-07-29T02:37:11;14.30;99.90
51733;DHT22;39139;53.144;6.244;2022-07-29T02:39:41;14.30;99.90
51733;DHT22;39139;53.144;6.244;2022-07-29T02:42:13;14.30;99.90
51733;DHT22;39139;53.144;6.244;2022-07-29T02:44:39;14.30;99.90
51733;DHT22;39139;53.144;6.244;2022-07-29T02:50:04;14.30;99.90
51733;DHT22;39139;53.144;6.244;2022-07-29T02:52:54;14.30;99.90
51733;DHT22;39139;53.144;6.244;2022-07-29T02:55:43;14.30;99.90
51733;DHT22;39139;53.144;6.244;2022-07-29T02:58:24;14.30;99.90
51733;DHT22;39139;53.144;6.244;2022-07-29T03:00:57;14.30;99.90
51733;DHT22;39139;53.144;6.244;2022-07-29T03:03:25;14.30;99.90
51733;DHT22;39139;53.144;6.244;2022-07-29T03:05:57;14.30;99.90
51733;DHT22;39139;53.144;6.244;2022-07-29T03:08:25;14.30;99.90
51733;DHT22;39139;53.144;6.244;2022-07-29T03:10:52;14.30;99.90
51733;DHT22;39139;53.144;6.244;2022-07-29T03:13:19;14.40;99.90
51733;DHT22;39139;53.144;6.244;2022-07-29T03:15:47;14.40;99.90
51733;DHT22;39139;53.144;6.244;2022-07-29T03:18:13;14.40;99.90
51733;DHT22;39139;53.144;6.244;2022-07-29T03:20:39;14.40;99.90
51733;DHT22;39139;53.144;6.244;2022-07-29T03:23:07;14.40;99.90
51733;DHT22;39139;53.144;6.244;2022-07-29T03:25:33;14.40;99.90
51733;DHT22;39139;53.144;6.244;2022-07-29T03:27:59;14.40;99.90
51733;DHT22;39139;53.144;6.244;2022-07-29T03:30:25;14.40;99.90
51733;DHT22;39139;53.144;6.244;2022-07-29T03:32:52;14.40;99.90
51733;DHT22;39139;53.144;6.244;2022-07-29T03:35:21;14.40;99.90
51733;DHT22;39139;53.144;6.244;2022-07-29T03:37:47;14.40;99.90
51733;DHT22;39139;53.144;6.244;2022-07-29T03:40:22;14.40;99.90
51733;DHT22;39139;53.144;6.244;2022-07-29T03:42:49;14.40;99.90
51733;DHT22;39139;53.144;6.244;2022-07-29T03:45:18;14.40;99.90
51733;DHT22;39139;53.144;6.244;2022-07-29T03:47:48;14.40;99.90
51733;DHT22;39139;53.144;6.244;2022-07-29T03:50:16;14.50;99.90
51733;DHT22;39139;53.144;6.244;2022-07-29T03:52:42;14.50;99.90
51733;DHT22;39139;53.144;6.244;2022-07-29T03:55:09;14.50;99.90
51733;DHT22;39139;53.144;6.244;2022-07-29T03:57:35;14.40;99.90
51733;DHT22;39139;53.144;6.244;2022-07-29T04:00:02;14.50;99.90
51733;DHT22;39139;53.144;6.244;2022-07-29T04:02:29;14.40;99.90
51733;DHT22;39139;53.144;6.244;2022-07-29T04:04:54;14.40;99.90
51733;DHT22;39139;53.144;6.244;2022-07-29T04:07:20;14.40;99.90
51733;DHT22;39139;53.144;6.244;2022-07-29T04:09:46;14.50;99.90
51733;DHT22;39139;53.144;6.244;2022-07-29T04:12:11;14.40;99.90
51733;DHT22;39139;53.144;6.244;2022-07-29T04:14:37;14.40;99.90
51733;DHT22;39139;53.144;6.244;2022-07-29T04:17:04;14.50;99.90
51733;DHT22;39139;53.144;6.244;2022-07-29T04:19:30;14.50;99.90
51733;DHT22;39139;53.144;6.244;2022-07-29T04:21:57;14.40;99.90
51733;DHT22;39139;53.144;6.244;2022-07-29T04:24:22;14.40;99.90
51733;DHT22;39139;53.144;6.244;2022-07-29T04:26:48;14.30;99.90
51733;DHT22;39139;53.144;6.244;2022-07-29T04:29:14;14.40;99.90
51733;DHT22;39139;53.144;6.244;2022-07-29T04:31:40;14.40;99.90
51733;DHT22;39139;53.144;6.244;2022-07-29T04:34:06;14.40;99.90
51733;DHT22;39139;53.144;6.244;2022-07-29T04:36:32;14.40;99.90
51733;DHT22;39139;53.144;6.244;2022-07-29T04:38:58;14.40;99.90
51733;DHT22;39139;53.144;6.244;2022-07-29T04:41:24;14.40;99.90
51733;DHT22;39139;53.144;6.244;2022-07-29T04:43:50;14.40;99.90
51733;DHT22;39139;53.144;6.244;2022-07-29T04:46:15;14.40;99.90
51733;DHT22;39139;53.144;6.244;2022-07-29T04:48:41;14.40;99.90
51733;DHT22;39139;53.144;6.244;2022-07-29T04:51:07;14.40;99.90
51733;DHT22;39139;53.144;6.244;2022-07-29T04:53:32;14.40;99.90
51733;DHT22;39139;53.144;6.244;2022-07-29T04:55:58;14.50;99.90
51733;DHT22;39139;53.144;6.244;2022-07-29T04:58:23;14.40;99.90
51733;DHT22;39139;53.144;6.244;2022-07-29T05:00:50;14.50;99.90
51733;DHT22;39139;53.144;6.244;2022-07-29T05:03:15;14.40;99.90
51733;DHT22;39139;53.144;6.244;2022-07-29T05:05:41;14.50;99.90
51733;DHT22;39139;53.144;6.244;2022-07-29T05:08:07;14.50;99.90
51733;DHT22;39139;53.144;6.244;2022-07-29T05:10:33;14.50;99.90
51733;DHT22;39139;53.144;6.244;2022-07-29T05:13:06;14.50;99.90
51733;DHT22;39139;53.144;6.244;2022-07-29T05:15:35;14.60;99.90
51733;DHT22;39139;53.144;6.244;2022-07-29T05:18:01;14.60;99.90
51733;DHT22;39139;53.144;6.244;2022-07-29T05:20:28;14.60;99.90
51733;DHT22;39139;53.144;6.244;2022-07-29T05:22:58;14.60;99.90
51733;DHT22;39139;53.144;6.244;2022-07-29T05:25:25;14.60;99.90
51733;DHT22;39139;53.144;6.244;2022-07-29T05:27:52;14.60;99.90
51733;DHT22;39139;53.144;6.244;2022-07-29T05:30:18;14.70;99.90
51733;DHT22;39139;53.144;6.244;2022-07-29T05:32:44;14.60;99.90
51733;DHT22;39139;53.144;6.244;2022-07-29T05:35:10;14.70;99.90
51733;DHT22;39139;53.144;6.244;2022-07-29T05:37:35;14.70;99.90
51733;DHT22;39139;53.144;6.244;2022-07-29T05:40:02;14.80;99.90
51733;DHT22;39139;53.144;6.244;2022-07-29T05:42:28;14.80;99.90
51733;DHT22;39139;53.144;6.244;2022-07-29T05:44:55;14.80;99.90
51733;DHT22;39139;53.144;6.244;2022-07-29T05:47:21;14.80;99.90
51733;DHT22;39139;53.144;6.244;2022-07-29T05:49:46;14.80;99.90
51733;DHT22;39139;53.144;6.244;2022-07-29T05:52:12;14.80;99.90
51733;DHT22;39139;53.144;6.244;2022-07-29T05:54:41;14.90;99.90
51733;DHT22;39139;53.144;6.244;2022-07-29T05:57:06;14.90;99.90
51733;DHT22;39139;53.144;6.244;2022-07-29T05:59:36;14.90;99.90
51733;DHT22;39139;53.144;6.244;2022-07-29T06:02:02;14.90;99.90
51733;DHT22;39139;53.144;6.244;2022-07-29T06:04:30;15.00;99.90
51733;DHT22;39139;53.144;6.244;2022-07-29T06:06:56;15.00;99.90
51733;DHT22;39139;53.144;6.244;2022-07-29T06:09:22;15.10;99.90
51733;DHT22;39139;53.144;6.244;2022-07-29T06:11:48;15.10;99.90
51733;DHT22;39139;53.144;6.244;2022-07-29T06:14:14;15.30;99.90
51733;DHT22;39139;53.144;6.244;2022-07-29T06:16:40;15.20;99.90
51733;DHT22;39139;53.144;6.244;2022-07-29T06:19:06;15.30;99.90
51733;DHT22;39139;53.144;6.244;2022-07-29T06:21:31;15.40;99.90
51733;DHT22;39139;53.144;6.244;2022-07-29T06:23:57;15.40;99.90
51733;DHT22;39139;53.144;6.244;2022-07-29T06:26:23;15.50;99.90
51733;DHT22;39139;53.144;6.244;2022-07-29T06:28:48;15.50;99.90
51733;DHT22;39139;53.144;6.244;2022-07-29T06:31:14;15.70;99.90
51733;DHT22;39139;53.144;6.244;2022-07-29T06:33:40;15.60;99.90
51733;DHT22;39139;53.144;6.244;2022-07-29T06:36:06;15.60;99.90
51733;DHT22;39139;53.144;6.244;2022-07-29T06:38:32;15.70;99.90
51733;DHT22;39139;53.144;6.244;2022-07-29T06:40:59;15.70;99.90
51733;DHT22;39139;53.144;6.244;2022-07-29T06:43:37;15.70;99.90
51733;DHT22;39139;53.144;6.244;2022-07-29T06:46:11;15.80;99.90
51733;DHT22;39139;53.144;6.244;2022-07-29T06:48:38;15.80;99.90
51733;DHT22;39139;53.144;6.244;2022-07-29T06:51:05;15.80;99.90
51733;DHT22;39139;53.144;6.244;2022-07-29T06:53:32;15.80;99.90
51733;DHT22;39139;53.144;6.244;2022-07-29T06:55:59;15.80;99.90
51733;DHT22;39139;53.144;6.244;2022-07-29T06:58:26;15.80;99.90
51733;DHT22;39139;53.144;6.244;2022-07-29T07:00:52;15.90;99.90
51733;DHT22;39139;53.144;6.244;2022-07-29T07:03:18;16.00;99.90
51733;DHT22;39139;53.144;6.244;2022-07-29T07:05:47;16.00;99.90
51733;DHT22;39139;53.144;6.244;2022-07-29T07:08:13;16.00;99.90
51733;DHT22;39139;53.144;6.244;2022-07-29T07:10:39;16.10;99.90
51733;DHT22;39139;53.144;6.244;2022-07-29T07:13:05;16.10;99.90
51733;DHT22;39139;53.144;6.244;2022-07-29T07:15:31;16.20;99.90
51733;DHT22;39139;53.144;6.244;2022-07-29T07:17:57;16.40;99.90
51733;DHT22;39139;53.144;6.244;2022-07-29T07:20:23;16.20;99.90
51733;DHT22;39139;53.144;6.244;2022-07-29T07:22:49;16.30;99.90
51733;DHT22;39139;53.144;6.244;2022-07-29T07:25:15;16.30;99.90
51733;DHT22;39139;53.144;6.244;2022-07-29T07:27:43;16.40;99.90
51733;DHT22;39139;53.144;6.244;2022-07-29T07:30:09;16.40;99.90
51733;DHT22;39139;53.144;6.244;2022-07-29T07:32:35;16.50;99.90
51733;DHT22;39139;53.144;6.244;2022-07-29T07:35:01;16.60;99.90
51733;DHT22;39139;53.144;6.244;2022-07-29T07:37:27;16.60;99.90
51733;DHT22;39139;53.144;6.244;2022-07-29T07:39:53;16.70;99.90
51733;DHT22;39139;53.144;6.244;2022-07-29T07:42:19;16.70;99.90
51733;DHT22;39139;53.144;6.244;2022-07-29T07:44:45;16.80;99.90
51733;DHT22;39139;53.144;6.244;2022-07-29T07:47:12;16.90;99.90
51733;DHT22;39139;53.144;6.244;2022-07-29T07:49:38;16.90;99.90
51733;DHT22;39139;53.144;6.244;2022-07-29T07:52:04;17.00;99.90
51733;DHT22;39139;53.144;6.244;2022-07-29T07:54:30;17.00;99.90
51733;DHT22;39139;53.144;6.244;2022-07-29T07:56:56;17.10;99.90
51733;DHT22;39139;53.144;6.244;2022-07-29T07:59:22;17.10;99.90
51733;DHT22;39139;53.144;6.244;2022-07-29T08:01:48;17.10;99.90
51733;DHT22;39139;53.144;6.244;2022-07-29T08:04:13;17.10;99.90
51733;DHT22;39139;53.144;6.244;2022-07-29T08:06:39;17.10;99.90
51733;DHT22;39139;53.144;6.244;2022-07-29T08:09:05;17.20;99.90
51733;DHT22;39139;53.144;6.244;2022-07-29T08:11:31;17.20;99.90
51733;DHT22;39139;53.144;6.244;2022-07-29T08:13:56;17.20;99.90
51733;DHT22;39139;53.144;6.244;2022-07-29T08:16:22;17.30;99.90
51733;DHT22;39139;53.144;6.244;2022-07-29T08:18:50;17.30;99.90
51733;DHT22;39139;53.144;6.244;2022-07-29T08:21:17;17.30;99.90
51733;DHT22;39139;53.144;6.244;2022-07-29T08:23:45;17.40;99.90
51733;DHT22;39139;53.144;6.244;2022-07-29T08:26:14;17.40;99.90
51733;DHT22;39139;53.144;6.244;2022-07-29T08:28:42;17.40;99.90
51733;DHT22;39139;53.144;6.244;2022-07-29T08:31:13;17.40;99.90
51733;DHT22;39139;53.144;6.244;2022-07-29T08:33:39;17.40;99.90
51733;DHT22;39139;53.144;6.244;2022-07-29T08:36:05;17.40;99.90
51733;DHT22;39139;53.144;6.244;2022-07-29T08:38:32;17.40;99.90
51733;DHT22;39139;53.144;6.244;2022-07-29T08:41:00;17.40;99.90
51733;DHT22;39139;53.144;6.244;2022-07-29T08:43:30;17.40;99.90
51733;DHT22;39139;53.144;6.244;2022-07-29T08:45:55;17.50;99.90
51733;DHT22;39139;53.144;6.244;2022-07-29T08:48:22;17.50;99.90
51733;DHT22;39139;53.144;6.244;2022-07-29T08:50:52;17.50;99.90
51733;DHT22;39139;53.144;6.244;2022-07-29T08:53:18;17.50;99.90
51733;DHT22;39139;53.144;6.244;2022-07-29T08:55:46;17.50;99.90
51733;DHT22;39139;53.144;6.244;2022-07-29T08:58:13;17.50;99.90
51733;DHT22;39139;53.144;6.244;2022-07-29T09:00:46;17.50;99.90
51733;DHT22;39139;53.144;6.244;2022-07-29T09:03:17;17.50;99.90
51733;DHT22;39139;53.144;6.244;2022-07-29T09:05:45;17.50;99.90
51733;DHT22;39139;53.144;6.244;2022-07-29T09:08:12;17.50;99.90
51733;DHT22;39139;53.144;6.244;2022-07-29T09:10:38;17.50;99.90
51733;DHT22;39139;53.144;6.244;2022-07-29T09:13:03;17.50;99.90
51733;DHT22;39139;53.144;6.244;2022-07-29T09:15:29;17.60;99.90
51733;DHT22;39139;53.144;6.244;2022-07-29T09:17:55;17.60;99.90
51733;DHT22;39139;53.144;6.244;2022-07-29T09:20:22;17.60;99.90
51733;DHT22;39139;53.144;6.244;2022-07-29T09:22:49;17.70;99.90
51733;DHT22;39139;53.144;6.244;2022-07-29T09:25:51;17.70;99.90
51733;DHT22;39139;53.144;6.244;2022-07-29T09:28:18;17.80;99.90
51733;DHT22;39139;53.144;6.244;2022-07-29T09:33:16;17.90;99.90
51733;DHT22;39139;53.144;6.244;2022-07-29T09:35:42;17.90;99.90
51733;DHT22;39139;53.144;6.244;2022-07-29T09:38:13;18.00;99.90
51733;DHT22;39139;53.144;6.244;2022-07-29T09:40:39;18.00;99.90
51733;DHT22;39139;53.144;6.244;2022-07-29T09:43:13;18.10;99.90
51733;DHT22;39139;53.144;6.244;2022-07-29T09:45:39;18.10;99.90
51733;DHT22;39139;53.144;6.244;2022-07-29T09:48:23;18.20;99.90
51733;DHT22;39139;53.144;6.244;2022-07-29T09:50:50;18.20;99.90
51733;DHT22;39139;53.144;6.244;2022-07-29T09:53:32;18.30;99.90
51733;DHT22;39139;53.144;6.244;2022-07-29T09:55:58;18.40;99.90
51733;DHT22;39139;53.144;6.244;2022-07-29T09:58:24;18.50;99.90
51733;DHT22;39139;53.144;6.244;2022-07-29T10:00:51;18.60;99.90
51733;DHT22;39139;53.144;6.244;2022-07-29T10:03:18;18.60;99.90
51733;DHT22;39139;53.144;6.244;2022-07-29T10:05:45;18.60;99.90
51733;DHT22;39139;53.144;6.244;2022-07-29T10:08:11;18.70;99.90
51733;DHT22;39139;53.144;6.244;2022-07-29T10:10:40;18.70;99.90
51733;DHT22;39139;53.144;6.244;2022-07-29T10:13:09;18.90;99.90
51733;DHT22;39139;53.144;6.244;2022-07-29T10:15:37;19.10;99.90
51733;DHT22;39139;53.144;6.244;2022-07-29T10:18:04;19.50;99.90
51733;DHT22;39139;53.144;6.244;2022-07-29T10:20:30;20.00;99.90
51733;DHT22;39139;53.144;6.244;2022-07-29T10:22:56;20.50;99.90
51733;DHT22;39139;53.144;6.244;2022-07-29T10:25:23;20.90;99.90
51733;DHT22;39139;53.144;6.244;2022-07-29T10:27:50;21.10;99.90
51733;DHT22;39139;53.144;6.244;2022-07-29T10:30:17;21.30;99.90
51733;DHT22;39139;53.144;6.244;2022-07-29T10:38:52;21.80;99.90
51733;DHT22;39139;53.144;6.244;2022-07-29T10:46:27;21.70;99.90
51733;DHT22;39139;53.144;6.244;2022-07-29T10:49:07;21.60;99.90
51733;DHT22;39139;53.144;6.244;2022-07-29T10:51:55;21.50;99.90
51733;DHT22;39139;53.144;6.244;2022-07-29T10:59:44;21.00;99.90
51733;DHT22;39139;53.144;6.244;2022-07-29T11:07:24;20.70;99.90
51733;DHT22;39139;53.144;6.244;2022-07-29T11:15:11;20.60;99.90
51733;DHT22;39139;53.144;6.244;2022-07-29T11:23:19;20.50;99.90
51733;DHT22;39139;53.144;6.244;2022-07-29T11:25:53;20.40;99.90
51733;DHT22;39139;53.144;6.244;2022-07-29T11:28:32;20.40;99.90
51733;DHT22;39139;53.144;6.244;2022-07-29T11:30:59;20.30;99.90
51733;DHT22;39139;53.144;6.244;2022-07-29T11:33:30;20.30;99.90
51733;DHT22;39139;53.144;6.244;2022-07-29T11:36:10;20.30;99.90
51733;DHT22;39139;53.144;6.244;2022-07-29T11:38:36;20.30;99.90
51733;DHT22;39139;53.144;6.244;2022-07-29T11:41:25;20.40;99.90
51733;DHT22;39139;53.144;6.244;2022-07-29T11:43:53;20.50;99.90
51733;DHT22;39139;53.144;6.244;2022-07-29T11:49:07;20.60;99.90
51733;DHT22;39139;53.144;6.244;2022-07-29T11:51:35;20.70;99.90
51733;DHT22;39139;53.144;6.244;2022-07-29T11:54:02;20.70;99.90
51733;DHT22;39139;53.144;6.244;2022-07-29T11:56:31;20.80;99.90
51733;DHT22;39139;53.144;6.244;2022-07-29T11:59:06;20.90;99.90
51733;DHT22;39139;53.144;6.244;2022-07-29T12:01:34;21.00;99.90
51733;DHT22;39139;53.144;6.244;2022-07-29T12:04:07;21.00;99.90
51733;DHT22;39139;53.144;6.244;2022-07-29T12:06:34;21.20;99.90
51733;DHT22;39139;53.144;6.244;2022-07-29T12:09:00;21.40;99.90
51733;DHT22;39139;53.144;6.244;2022-07-29T12:11:26;21.50;99.90
51733;DHT22;39139;53.144;6.244;2022-07-29T12:13:52;21.70;99.90
51733;DHT22;39139;53.144;6.244;2022-07-29T12:16:19;21.80;99.90
51733;DHT22;39139;53.144;6.244;2022-07-29T12:19:02;21.90;99.90
51733;DHT22;39139;53.144;6.244;2022-07-29T12:21:43;22.10;99.90
51733;DHT22;39139;53.144;6.244;2022-07-29T12:24:08;22.20;99.90
51733;DHT22;39139;53.144;6.244;2022-07-29T12:26:34;22.40;99.90
51733;DHT22;39139;53.144;6.244;2022-07-29T12:29:00;22.60;99.90
51733;DHT22;39139;53.144;6.244;2022-07-29T12:31:25;22.70;99.90
51733;DHT22;39139;53.144;6.244;2022-07-29T12:33:52;22.70;99.90
51733;DHT22;39139;53.144;6.244;2022-07-29T12:36:21;22.60;99.90
51733;DHT22;39139;53.144;6.244;2022-07-29T12:38:47;22.40;99.90
51733;DHT22;39139;53.144;6.244;2022-07-29T12:41:13;22.50;99.90
51733;DHT22;39139;53.144;6.244;2022-07-29T12:43:52;22.60;99.90
51733;DHT22;39139;53.144;6.244;2022-07-29T12:46:18;22.80;99.90
51733;DHT22;39139;53.144;6.244;2022-07-29T12:48:44;23.00;99.90
51733;DHT22;39139;53.144;6.244;2022-07-29T12:51:10;23.00;99.90
51733;DHT22;39139;53.144;6.244;2022-07-29T12:53:37;22.90;99.90
51733;DHT22;39139;53.144;6.244;2022-07-29T12:56:04;22.80;99.90
51733;DHT22;39139;53.144;6.244;2022-07-29T12:58:34;22.90;99.90
51733;DHT22;39139;53.144;6.244;2022-07-29T13:01:06;23.00;99.90
51733;DHT22;39139;53.144;6.244;2022-07-29T13:06:47;23.20;99.90
51733;DHT22;39139;53.144;6.244;2022-07-29T13:09:14;23.40;99.90
51733;DHT22;39139;53.144;6.244;2022-07-29T13:11:43;23.50;99.90
51733;DHT22;39139;53.144;6.244;2022-07-29T13:14:11;23.60;99.90
51733;DHT22;39139;53.144;6.244;2022-07-29T13:19:50;23.70;99.90
51733;DHT22;39139;53.144;6.244;2022-07-29T13:22:21;23.90;99.90
51733;DHT22;39139;53.144;6.244;2022-07-29T13:24:58;24.00;99.90
51733;DHT22;39139;53.144;6.244;2022-07-29T13:27:32;24.10;99.90
51733;DHT22;39139;53.144;6.244;2022-07-29T13:30:00;24.10;99.90
51733;DHT22;39139;53.144;6.244;2022-07-29T13:32:27;24.10;99.90
51733;DHT22;39139;53.144;6.244;2022-07-29T13:34:54;24.10;99.90
51733;DHT22;39139;53.144;6.244;2022-07-29T13:37:20;24.10;99.90
51733;DHT22;39139;53.144;6.244;2022-07-29T13:39:46;24.00;99.90
51733;DHT22;39139;53.144;6.244;2022-07-29T13:42:13;24.10;99.90
51733;DHT22;39139;53.144;6.244;2022-07-29T13:44:39;24.20;99.90
51733;DHT22;39139;53.144;6.244;2022-07-29T13:47:06;24.20;99.90
51733;DHT22;39139;53.144;6.244;2022-07-29T13:49:32;24.30;99.90
51733;DHT22;39139;53.144;6.244;2022-07-29T13:51:57;24.50;99.90
51733;DHT22;39139;53.144;6.244;2022-07-29T13:54:23;24.50;99.90
51733;DHT22;39139;53.144;6.244;2022-07-29T13:56:50;24.50;99.90
51733;DHT22;39139;53.144;6.244;2022-07-29T13:59:15;24.40;99.90
51733;DHT22;39139;53.144;6.244;2022-07-29T14:01:41;24.30;99.90
51733;DHT22;39139;53.144;6.244;2022-07-29T14:04:08;24.40;99.90
51733;DHT22;39139;53.144;6.244;2022-07-29T14:06:33;24.50;99.90
51733;DHT22;39139;53.144;6.244;2022-07-29T14:08:59;24.60;99.90
51733;DHT22;39139;53.144;6.244;2022-07-29T14:11:25;24.60;99.90
51733;DHT22;39139;53.144;6.244;2022-07-29T14:13:50;24.70;99.90
51733;DHT22;39139;53.144;6.244;2022-07-29T14:16:19;24.90;99.90
51733;DHT22;39139;53.144;6.244;2022-07-29T14:18:45;24.90;99.90
51733;DHT22;39139;53.144;6.244;2022-07-29T14:21:11;24.90;99.90
51733;DHT22;39139;53.144;6.244;2022-07-29T14:23:39;25.00;99.90
51733;DHT22;39139;53.144;6.244;2022-07-29T14:26:06;25.10;99.90
51733;DHT22;39139;53.144;6.244;2022-07-29T14:28:31;25.10;99.90
51733;DHT22;39139;53.144;6.244;2022-07-29T14:30:57;25.20;99.90
51733;DHT22;39139;53.144;6.244;2022-07-29T14:33:22;25.30;99.90
51733;DHT22;39139;53.144;6.244;2022-07-29T14:35:48;25.40;99.90
51733;DHT22;39139;53.144;6.244;2022-07-29T14:38:14;25.40;99.90
51733;DHT22;39139;53.144;6.244;2022-07-29T14:40:40;25.30;99.90
51733;DHT22;39139;53.144;6.244;2022-07-29T14:43:05;25.10;99.90
51733;DHT22;39139;53.144;6.244;2022-07-29T14:45:31;24.90;99.90
51733;DHT22;39139;53.144;6.244;2022-07-29T14:48:00;24.90;99.90
51733;DHT22;39139;53.144;6.244;2022-07-29T14:50:25;24.80;99.90
51733;DHT22;39139;53.144;6.244;2022-07-29T14:52:52;24.90;99.90
51733;DHT22;39139;53.144;6.244;2022-07-29T14:55:18;24.90;99.90
51733;DHT22;39139;53.144;6.244;2022-07-29T14:57:43;24.90;99.90
51733;DHT22;39139;53.144;6.244;2022-07-29T15:00:10;25.00;99.90
51733;DHT22;39139;53.144;6.244;2022-07-29T15:02:36;25.10;99.90
51733;DHT22;39139;53.144;6.244;2022-07-29T15:05:02;25.00;99.90
51733;DHT22;39139;53.144;6.244;2022-07-29T15:07:28;25.00;99.90
51733;DHT22;39139;53.144;6.244;2022-07-29T15:09:54;25.10;99.90
51733;DHT22;39139;53.144;6.244;2022-07-29T15:12:19;25.10;99.90
51733;DHT22;39139;53.144;6.244;2022-07-29T15:14:45;25.10;99.90
51733;DHT22;39139;53.144;6.244;2022-07-29T15:17:11;25.10;99.90
51733;DHT22;39139;53.144;6.244;2022-07-29T15:19:36;25.10;99.90
51733;DHT22;39139;53.144;6.244;2022-07-29T15:22:02;25.10;99.90
51733;DHT22;39139;53.144;6.244;2022-07-29T15:24:30;25.10;99.90
51733;DHT22;39139;53.144;6.244;2022-07-29T15:26:56;25.10;99.90
51733;DHT22;39139;53.144;6.244;2022-07-29T15:29:21;24.80;99.90
51733;DHT22;39139;53.144;6.244;2022-07-29T15:31:48;24.80;99.90
51733;DHT22;39139;53.144;6.244;2022-07-29T15:34:13;24.60;99.90
51733;DHT22;39139;53.144;6.244;2022-07-29T15:36:39;24.60;99.90
51733;DHT22;39139;53.144;6.244;2022-07-29T15:39:05;24.50;99.90
51733;DHT22;39139;53.144;6.244;2022-07-29T15:41:31;24.50;99.90
51733;DHT22;39139;53.144;6.244;2022-07-29T15:43:56;24.50;99.90
51733;DHT22;39139;53.144;6.244;2022-07-29T15:46:22;24.30;99.90
51733;DHT22;39139;53.144;6.244;2022-07-29T15:49:07;24.30;99.90
51733;DHT22;39139;53.144;6.244;2022-07-29T15:51:32;24.20;99.90
51733;DHT22;39139;53.144;6.244;2022-07-29T15:54:00;24.20;99.90
51733;DHT22;39139;53.144;6.244;2022-07-29T15:56:27;24.20;99.90
51733;DHT22;39139;53.144;6.244;2022-07-29T15:58:52;24.20;99.90
51733;DHT22;39139;53.144;6.244;2022-07-29T16:01:18;24.40;99.90
51733;DHT22;39139;53.144;6.244;2022-07-29T16:03:44;24.40;99.90
51733;DHT22;39139;53.144;6.244;2022-07-29T16:06:09;24.40;99.90
51733;DHT22;39139;53.144;6.244;2022-07-29T16:08:35;24.40;99.90
51733;DHT22;39139;53.144;6.244;2022-07-29T16:11:01;24.50;99.90
51733;DHT22;39139;53.144;6.244;2022-07-29T16:13:26;24.50;99.90
51733;DHT22;39139;53.144;6.244;2022-07-29T16:15:52;24.50;99.90
51733;DHT22;39139;53.144;6.244;2022-07-29T16:18:18;24.50;99.90
51733;DHT22;39139;53.144;6.244;2022-07-29T16:20:43;24.50;99.90
51733;DHT22;39139;53.144;6.244;2022-07-29T16:23:09;24.40;99.90
51733;DHT22;39139;53.144;6.244;2022-07-29T16:25:37;24.40;99.90